createdAt,value
2017-08-07T00:01:02.820Z,99.99
2017-08-07T00:02:12.647Z,99.99
2017-08-07T00:03:22.176Z,99.99
2017-08-07T00:04:31.395Z,99.99
2017-08-07T00:05:40.929Z,99.99
2017-08-07T00:06:50.457Z,99.99
2017-08-07T00:07:59.996Z,99.99
2017-08-07T00:09:09.526Z,99.99
2017-08-07T00:10:18.732Z,99.99
2017-08-07T00:11:27.939Z,99.99
2017-08-07T00:12:36.834Z,99.99
2017-08-07T00:13:46.840Z,99.99
2017-08-07T00:14:56.046Z,99.99
2017-08-07T00:16:05.898Z,99.99
2017-08-07T00:17:15.108Z,99.99
2017-08-07T00:18:25.280Z,99.99
2017-08-07T00:19:35.245Z,99.99
2017-08-07T00:20:44.130Z,99.99
2017-08-07T00:21:53.341Z,99.99
2017-08-07T00:23:02.870Z,99.99
2017-08-07T00:24:12.080Z,99.99
2017-08-07T00:25:22.085Z,99.99
2017-08-07T00:26:31.622Z,99.99
2017-08-07T00:27:41.474Z,99.99
2017-08-07T00:28:50.679Z,99.99
2017-08-07T00:30:00.220Z,99.99
2017-08-07T00:31:09.967Z,99.99
2017-08-07T00:32:20.149Z,99.99
2017-08-07T00:33:30.340Z,99.99
2017-08-07T00:34:40.192Z,99.99
2017-08-07T00:35:49.089Z,99.99
2017-08-07T00:36:58.343Z,99.99
2017-08-07T00:38:08.195Z,99.99
2017-08-07T00:39:17.398Z,99.99
2017-08-07T00:40:26.929Z,99.99
2017-08-07T00:41:36.459Z,99.99
2017-08-07T00:42:46.137Z,99.99
2017-08-07T00:43:55.017Z,99.99
2017-08-07T00:45:04.542Z,99.99
2017-08-07T00:46:14.072Z,99.99
2017-08-07T00:47:23.278Z,99.99
2017-08-07T00:48:32.785Z,99.99
2017-08-07T00:49:41.994Z,99.99
2017-08-07T00:50:51.195Z,99.99
2017-08-07T00:52:00.073Z,99.99
2017-08-07T00:53:09.928Z,99.99
2017-08-07T00:54:19.781Z,99.99
2017-08-07T00:55:29.310Z,99.99
2017-08-07T00:56:38.198Z,99.99
2017-08-07T00:57:47.088Z,99.99
2017-08-07T00:58:56.294Z,99.99
2017-08-07T01:00:05.926Z,99.99
2017-08-07T01:01:15.181Z,99.99
2017-08-07T01:02:25.033Z,99.99
2017-08-07T01:03:34.237Z,99.99
2017-08-07T01:04:43.764Z,99.99
2017-08-07T01:05:53.438Z,99.99
2017-08-07T01:07:02.966Z,99.99
2017-08-07T01:08:12.498Z,99.99
2017-08-07T01:09:21.699Z,99.99
2017-08-07T01:10:31.229Z,99.99
2017-08-07T01:11:40.437Z,99.99
2017-08-07T01:12:49.642Z,99.99
2017-08-07T01:13:59.493Z,99.99
2017-08-07T01:15:09.022Z,99.99
2017-08-07T01:16:18.874Z,99.99
2017-08-07T01:17:28.424Z,99.99
2017-08-07T01:18:37.628Z,99.99
2017-08-07T01:19:47.155Z,99.99
2017-08-07T01:20:56.686Z,99.99
2017-08-07T01:22:05.567Z,99.99
2017-08-07T01:23:15.145Z,99.99
2017-08-07T01:24:24.669Z,99.99
2017-08-07T01:25:33.873Z,99.99
2017-08-07T01:26:43.721Z,99.99
2017-08-07T01:27:53.254Z,99.99
2017-08-07T01:29:02.931Z,99.99
2017-08-07T01:30:12.139Z,99.99
2017-08-07T01:31:21.349Z,99.99
2017-08-07T01:32:30.553Z,99.99
2017-08-07T01:33:39.754Z,99.99
2017-08-07T01:34:49.334Z,99.99
2017-08-07T01:35:58.859Z,99.99
2017-08-07T01:37:08.067Z,99.99
2017-08-07T01:38:17.270Z,99.99
2017-08-07T01:39:26.486Z,99.99
2017-08-07T01:40:35.363Z,99.99
2017-08-07T01:41:44.899Z,99.99
2017-08-07T01:42:54.103Z,99.99
2017-08-07T01:44:03.632Z,99.99
2017-08-07T01:45:13.160Z,99.99
2017-08-07T01:46:22.942Z,99.99
2017-08-07T01:47:32.474Z,99.99
2017-08-07T01:48:41.675Z,99.99
2017-08-07T01:49:50.883Z,99.99
2017-08-07T01:51:00.087Z,99.99
2017-08-07T01:52:09.773Z,99.99
2017-08-07T01:53:18.973Z,99.99
2017-08-07T01:54:28.178Z,99.99
2017-08-07T01:55:38.036Z,99.99
2017-08-07T01:56:47.245Z,99.99
2017-08-07T01:57:57.249Z,99.99
2017-08-07T01:59:06.459Z,99.99
2017-08-07T02:00:15.997Z,99.99
2017-08-07T02:01:25.852Z,99.99
2017-08-07T02:02:35.382Z,99.99
2017-08-07T02:03:44.365Z,99.99
2017-08-07T02:04:53.574Z,99.99
2017-08-07T02:06:02.778Z,99.99
2017-08-07T02:07:11.983Z,99.99
2017-08-07T02:08:21.832Z,99.99
2017-08-07T02:09:31.682Z,99.99
2017-08-07T02:10:41.531Z,99.99
2017-08-07T02:11:51.386Z,99.99
2017-08-07T02:13:00.908Z,99.99
2017-08-07T02:14:09.793Z,99.99
2017-08-07T02:15:19.522Z,99.99
2017-08-07T02:16:28.724Z,99.99
2017-08-07T02:17:37.928Z,99.99
2017-08-07T02:18:47.458Z,99.99
2017-08-07T02:19:57.306Z,99.99
2017-08-07T02:21:07.135Z,99.99
2017-08-07T02:22:16.340Z,99.99
2017-08-07T02:23:26.199Z,99.99
2017-08-07T02:24:35.402Z,99.99
2017-08-07T02:25:44.604Z,99.99
2017-08-07T02:26:54.215Z,99.99
2017-08-07T02:28:03.743Z,99.99
2017-08-07T02:29:13.265Z,99.99
2017-08-07T02:30:22.471Z,99.99
2017-08-07T02:31:32.323Z,99.99
2017-08-07T02:32:41.950Z,99.99
2017-08-07T02:33:51.802Z,99.99
2017-08-07T02:35:01.659Z,99.99
2017-08-07T02:36:10.866Z,99.99
2017-08-07T02:37:20.713Z,99.99
2017-08-07T02:38:29.917Z,99.99
2017-08-07T02:39:39.445Z,99.99
2017-08-07T02:40:48.986Z,99.99
2017-08-07T02:41:58.200Z,99.99
2017-08-07T02:43:08.062Z,99.99
2017-08-07T02:44:17.426Z,99.99
2017-08-07T02:45:26.962Z,99.99
2017-08-07T02:46:36.820Z,99.99
2017-08-07T02:47:46.047Z,99.99
2017-08-07T02:48:54.928Z,99.99
2017-08-07T02:50:04.578Z,99.99
2017-08-07T02:51:14.104Z,99.99
2017-08-07T02:52:23.311Z,99.99
2017-08-07T02:53:32.516Z,99.99
2017-08-07T02:54:41.720Z,99.99
2017-08-07T02:55:51.561Z,99.99
2017-08-07T02:57:00.763Z,99.99
2017-08-07T02:58:10.613Z,99.99
2017-08-07T02:59:20.144Z,99.99
2017-08-07T03:00:29.025Z,99.99
2017-08-07T03:01:38.705Z,99.99
2017-08-07T03:02:48.554Z,99.99
2017-08-07T03:03:58.080Z,99.99
2017-08-07T03:05:07.610Z,99.99
2017-08-07T03:06:16.821Z,99.99
2017-08-07T03:07:26.508Z,99.99
2017-08-07T03:08:36.357Z,99.99
2017-08-07T03:09:45.565Z,99.99
2017-08-07T03:10:55.410Z,99.99
2017-08-07T03:12:04.617Z,99.99
2017-08-07T03:13:14.467Z,99.99
2017-08-07T03:14:23.674Z,99.99
2017-08-07T03:15:32.558Z,99.99
2017-08-07T03:16:42.086Z,99.99
2017-08-07T03:17:51.292Z,99.99
2017-08-07T03:19:00.814Z,99.99
2017-08-07T03:20:10.666Z,99.99
2017-08-07T03:21:20.519Z,99.99
2017-08-07T03:22:30.369Z,99.99
2017-08-07T03:23:39.900Z,99.99
2017-08-07T03:24:49.258Z,99.99
2017-08-07T03:25:58.782Z,99.99
2017-08-07T03:27:08.634Z,99.99
2017-08-07T03:28:18.494Z,99.99
2017-08-07T03:29:28.017Z,99.99
2017-08-07T03:30:37.376Z,99.99
2017-08-07T03:31:46.912Z,99.99
2017-08-07T03:32:56.767Z,99.99
2017-08-07T03:34:05.971Z,99.99
2017-08-07T03:35:15.501Z,99.99
2017-08-07T03:36:25.026Z,99.99
2017-08-07T03:37:34.232Z,99.99
2017-08-07T03:38:43.446Z,99.99
2017-08-07T03:39:52.652Z,99.99
2017-08-07T03:41:02.824Z,99.99
2017-08-07T03:42:13.472Z,99.99
2017-08-07T03:43:23.326Z,99.99
2017-08-07T03:44:32.206Z,99.99
2017-08-07T03:45:41.729Z,99.99
2017-08-07T03:46:51.257Z,99.99
2017-08-07T03:48:01.034Z,99.99
2017-08-07T03:49:10.240Z,99.99
2017-08-07T03:50:20.101Z,99.99
2017-08-07T03:51:29.628Z,99.99
2017-08-07T03:52:39.801Z,99.99
2017-08-07T03:53:49.586Z,99.99
2017-08-07T03:54:58.790Z,99.99
2017-08-07T03:56:08.318Z,99.99
2017-08-07T03:57:17.851Z,99.99
2017-08-07T03:58:27.704Z,99.99
2017-08-07T03:59:38.029Z,99.99
2017-08-07T04:00:46.915Z,99.99
2017-08-07T04:01:56.445Z,99.99
2017-08-07T04:03:06.296Z,99.99
2017-08-07T04:04:15.183Z,99.99
2017-08-07T04:05:24.066Z,99.99
2017-08-07T04:06:33.930Z,99.99
2017-08-07T04:07:44.104Z,99.99
2017-08-07T04:08:53.311Z,99.99
2017-08-07T04:10:02.841Z,99.99
2017-08-07T04:11:12.471Z,99.99
2017-08-07T04:12:22.323Z,99.99
2017-08-07T04:13:32.496Z,99.99
2017-08-07T04:14:41.703Z,99.99
2017-08-07T04:15:51.239Z,99.99
2017-08-07T04:17:01.066Z,99.99
2017-08-07T04:18:10.597Z,99.99
2017-08-07T04:19:20.125Z,99.99
2017-08-07T04:20:29.327Z,99.99
2017-08-07T04:21:39.181Z,99.99
2017-08-07T04:22:48.760Z,99.99
2017-08-07T04:23:58.940Z,99.99
2017-08-07T04:25:08.473Z,99.99
2017-08-07T04:26:18.007Z,99.99
2017-08-07T04:27:27.862Z,99.99
2017-08-07T04:28:37.542Z,99.99
2017-08-07T04:29:46.749Z,99.99
2017-08-07T04:30:56.275Z,99.99
2017-08-07T04:32:05.802Z,99.99
2017-08-07T04:33:15.008Z,99.99
2017-08-07T04:34:24.693Z,99.99
2017-08-07T04:35:33.899Z,99.99
2017-08-07T04:36:43.762Z,99.99
2017-08-07T04:37:53.296Z,99.99
2017-08-07T04:39:02.830Z,99.99
2017-08-07T04:40:13.203Z,99.99
2017-08-07T04:41:23.381Z,99.99
2017-08-07T04:42:33.548Z,99.99
2017-08-07T04:43:43.078Z,99.99
2017-08-07T04:44:52.968Z,99.99
2017-08-07T04:46:02.820Z,99.99
2017-08-07T04:47:12.673Z,99.99
2017-08-07T04:48:22.846Z,99.99
2017-08-07T04:49:32.383Z,99.99
2017-08-07T04:50:41.913Z,99.99
2017-08-07T04:51:51.116Z,99.99
2017-08-07T04:52:59.995Z,99.99
2017-08-07T04:54:09.849Z,99.99
2017-08-07T04:55:19.390Z,99.99
2017-08-07T04:56:28.602Z,99.99
2017-08-07T04:57:37.969Z,99.99
2017-08-07T04:58:47.497Z,99.99
2017-08-07T04:59:57.025Z,99.99
2017-08-07T05:01:06.878Z,99.99
2017-08-07T05:02:16.732Z,99.99
2017-08-07T05:03:26.310Z,99.99
2017-08-07T05:04:36.484Z,99.99
2017-08-07T05:05:45.688Z,99.99
2017-08-07T05:06:54.576Z,99.99
2017-08-07T05:08:04.122Z,99.99
2017-08-07T05:09:13.312Z,99.99
2017-08-07T05:10:22.526Z,99.99
2017-08-07T05:11:32.052Z,99.99
2017-08-07T05:12:42.231Z,99.99
2017-08-07T05:13:51.757Z,99.99
2017-08-07T05:15:01.119Z,99.99
2017-08-07T05:16:10.970Z,99.99
2017-08-07T05:17:20.830Z,99.99
2017-08-07T05:18:30.044Z,99.99
2017-08-07T05:19:39.573Z,99.99
2017-08-07T05:20:48.510Z,99.99
2017-08-07T05:21:58.362Z,99.99
2017-08-07T05:23:07.903Z,99.99
2017-08-07T05:24:17.432Z,99.99
2017-08-07T05:25:26.634Z,99.99
2017-08-07T05:26:36.631Z,99.99
2017-08-07T05:27:46.161Z,99.99
2017-08-07T05:28:56.339Z,99.99
2017-08-07T05:30:06.523Z,99.99
2017-08-07T05:31:16.054Z,99.99
2017-08-07T05:32:25.566Z,99.99
2017-08-07T05:33:34.772Z,99.99
2017-08-07T05:34:43.655Z,99.99
2017-08-07T05:35:52.536Z,99.99
2017-08-07T05:37:01.751Z,99.99
2017-08-07T05:38:11.280Z,99.99
2017-08-07T05:39:20.818Z,99.99
2017-08-07T05:40:31.004Z,99.99
2017-08-07T05:41:40.537Z,99.99
2017-08-07T05:42:49.420Z,99.99
2017-08-07T05:43:59.678Z,99.99
2017-08-07T05:45:09.533Z,99.99
2017-08-07T05:46:19.062Z,99.99
2017-08-07T05:47:28.592Z,99.99
2017-08-07T05:48:38.124Z,99.99
2017-08-07T05:49:47.058Z,99.99
2017-08-07T05:50:56.271Z,99.99
2017-08-07T05:52:05.162Z,99.99
2017-08-07T05:53:14.741Z,99.99
2017-08-07T05:54:24.595Z,99.99
2017-08-07T05:55:34.595Z,99.99
2017-08-07T05:56:44.133Z,99.99
2017-08-07T05:57:53.339Z,99.99
2017-08-07T05:59:03.211Z,99.99
2017-08-07T06:00:13.386Z,99.99
2017-08-07T06:01:23.496Z,99.99
2017-08-07T06:02:33.368Z,99.99
2017-08-07T06:03:42.581Z,99.99
2017-08-07T06:04:51.472Z,99.99
2017-08-07T06:06:00.681Z,99.99
2017-08-07T06:07:10.208Z,99.99
2017-08-07T06:08:19.750Z,99.99
2017-08-07T06:09:29.387Z,99.99
2017-08-07T06:10:39.251Z,99.99
2017-08-07T06:11:48.783Z,99.99
2017-08-07T06:12:57.995Z,99.99
2017-08-07T06:14:06.880Z,99.99
2017-08-07T06:15:16.419Z,99.99
2017-08-07T06:16:25.953Z,99.99
2017-08-07T06:17:35.494Z,99.99
2017-08-07T06:18:44.378Z,99.99
2017-08-07T06:19:54.234Z,99.99
2017-08-07T06:21:04.409Z,99.99
2017-08-07T06:22:13.292Z,99.99
2017-08-07T06:23:23.461Z,99.99
2017-08-07T06:24:33.318Z,99.99
2017-08-07T06:25:42.855Z,99.99
2017-08-07T06:26:52.708Z,99.99
2017-08-07T06:28:01.595Z,99.99
2017-08-07T06:29:10.806Z,99.99
2017-08-07T06:30:20.336Z,99.99
2017-08-07T06:31:29.879Z,99.99
2017-08-07T06:32:38.818Z,99.99
2017-08-07T06:33:48.354Z,99.99
2017-08-07T06:34:57.883Z,99.99
2017-08-07T06:36:07.742Z,99.99
2017-08-07T06:37:16.955Z,99.99
2017-08-07T06:38:27.286Z,99.99
2017-08-07T06:39:36.494Z,99.99
2017-08-07T06:40:46.355Z,99.99
2017-08-07T06:41:56.219Z,99.99
2017-08-07T06:43:06.072Z,99.99
2017-08-07T06:44:15.339Z,99.99
2017-08-07T06:45:24.869Z,99.99
2017-08-07T06:46:34.401Z,99.99
2017-08-07T06:47:43.606Z,99.99
2017-08-07T06:48:52.488Z,99.99
2017-08-07T06:50:02.118Z,99.99
2017-08-07T06:51:12.307Z,99.99
2017-08-07T06:52:21.193Z,99.99
2017-08-07T06:53:31.063Z,99.99
2017-08-07T06:54:40.918Z,99.99
2017-08-07T06:55:50.698Z,99.99
2017-08-07T06:57:00.229Z,99.99
2017-08-07T06:58:10.731Z,99.99
2017-08-07T06:59:20.588Z,99.99
2017-08-07T07:00:30.122Z,99.99
2017-08-07T07:01:39.801Z,99.99
2017-08-07T07:02:49.017Z,99.99
2017-08-07T07:03:58.238Z,99.99
2017-08-07T07:05:07.774Z,99.99
2017-08-07T07:06:17.313Z,99.99
2017-08-07T07:07:27.243Z,99.99
2017-08-07T07:08:36.877Z,99.99
2017-08-07T07:09:46.312Z,99.99
2017-08-07T07:10:55.549Z,99.99
2017-08-07T07:12:05.083Z,99.99
2017-08-07T07:13:14.866Z,99.99
2017-08-07T07:14:24.075Z,99.99
2017-08-07T07:15:33.930Z,99.99
2017-08-07T07:16:43.795Z,99.99
2017-08-07T07:17:53.668Z,99.99
2017-08-07T07:19:04.000Z,99.99
2017-08-07T07:20:14.176Z,99.99
2017-08-07T07:21:23.710Z,99.99
2017-08-07T07:22:32.922Z,99.99
2017-08-07T07:23:42.459Z,99.99
2017-08-07T07:24:51.823Z,99.99
2017-08-07T07:26:00.714Z,99.99
2017-08-07T07:27:09.925Z,99.99
2017-08-07T07:28:19.132Z,99.99
2017-08-07T07:29:28.023Z,99.99
2017-08-07T07:30:37.706Z,99.99
2017-08-07T07:31:46.595Z,99.99
2017-08-07T07:32:55.801Z,99.99
2017-08-07T07:34:05.681Z,99.05
2017-08-07T07:35:14.888Z,99.82
2017-08-07T07:36:24.506Z,99.99
2017-08-07T07:37:35.019Z,99.99
2017-08-07T07:38:44.238Z,99.99
2017-08-07T07:39:54.421Z,99.99
2017-08-07T07:41:03.963Z,99.24
2017-08-07T07:42:14.197Z,99.63
2017-08-07T07:43:24.375Z,99.99
2017-08-07T07:44:34.230Z,99.53
2017-08-07T07:45:43.788Z,99.1
2017-08-07T07:46:52.997Z,96.22
2017-08-07T07:48:03.014Z,92.96
2017-08-07T07:49:13.193Z,91.52
2017-08-07T07:50:22.449Z,92.86
2017-08-07T07:51:31.977Z,93.73
2017-08-07T07:52:41.839Z,90.7
2017-08-07T07:53:51.400Z,89.84
2017-08-07T07:55:00.611Z,90.22
2017-08-07T07:56:09.818Z,89.65
2017-08-07T07:57:18.704Z,90.32
2017-08-07T07:58:28.235Z,89.46
2017-08-07T07:59:37.596Z,90.52
2017-08-07T08:00:46.807Z,90.52
2017-08-07T08:01:56.348Z,89.94
2017-08-07T08:03:06.203Z,88.06
2017-08-07T08:04:15.085Z,88.73
2017-08-07T08:05:24.118Z,88.06
2017-08-07T08:06:33.993Z,87.96
2017-08-07T08:07:43.857Z,88.45
2017-08-07T08:08:53.066Z,87.68
2017-08-07T08:10:02.600Z,86.81
2017-08-07T08:11:12.508Z,86.52
2017-08-07T08:12:21.717Z,84.84
2017-08-07T08:13:31.570Z,84.26
2017-08-07T08:14:41.101Z,83.97
2017-08-07T08:15:50.635Z,84.55
2017-08-07T08:16:59.894Z,84.74
2017-08-07T08:18:09.438Z,84.74
2017-08-07T08:19:18.990Z,84.55
2017-08-07T08:20:28.530Z,82.92
2017-08-07T08:21:37.742Z,83.11
2017-08-07T08:22:47.255Z,82.48
2017-08-07T08:23:56.479Z,82.96
2017-08-07T08:25:06.666Z,82.48
2017-08-07T08:26:16.194Z,82.57
2017-08-07T08:27:25.405Z,83.06
2017-08-07T08:28:34.441Z,81.42
2017-08-07T08:29:43.669Z,81.52
2017-08-07T08:30:52.881Z,80.36
2017-08-07T08:32:02.739Z,81.13
2017-08-07T08:33:11.954Z,81.56
2017-08-07T08:34:21.263Z,80.11
2017-08-07T08:35:30.155Z,79.15
2017-08-07T08:36:39.365Z,79.53
2017-08-07T08:37:48.586Z,77.71
2017-08-07T08:38:57.472Z,78.09
2017-08-07T08:40:07.308Z,77.9
2017-08-07T08:41:16.841Z,78.86
2017-08-07T08:42:25.729Z,78.86
2017-08-07T08:43:35.271Z,78.77
2017-08-07T08:44:44.157Z,77.08
2017-08-07T08:45:53.991Z,78.23
2017-08-07T08:47:03.210Z,78.13
2017-08-07T08:48:12.755Z,75.69
2017-08-07T08:49:21.975Z,75.11
2017-08-07T08:50:31.829Z,74.57
2017-08-07T08:51:40.762Z,74.76
2017-08-07T08:52:50.296Z,74.57
2017-08-07T08:54:00.154Z,75.05
2017-08-07T08:55:09.040Z,71.01
2017-08-07T08:56:18.250Z,71.3
2017-08-07T08:57:28.088Z,72.55
2017-08-07T08:58:37.298Z,72.45
2017-08-07T08:59:47.155Z,70.34
2017-08-07T09:00:57.013Z,70.34
2017-08-07T09:02:06.881Z,70.15
2017-08-07T09:03:16.749Z,71.59
2017-08-07T09:04:25.957Z,71.2
2017-08-07T09:05:35.489Z,70.92
2017-08-07T09:06:44.392Z,70.76
2017-08-07T09:07:53.938Z,70.86
2017-08-07T09:09:03.200Z,70.47
2017-08-07T09:10:13.379Z,69.89
2017-08-07T09:11:23.239Z,67.71
2017-08-07T09:12:32.774Z,68.68
2017-08-07T09:13:41.660Z,69.15
2017-08-07T09:14:50.646Z,68.87
2017-08-07T09:16:00.181Z,68.87
2017-08-07T09:17:10.036Z,68.48
2017-08-07T09:18:19.585Z,66.46
2017-08-07T09:19:28.798Z,66.65
2017-08-07T09:20:38.171Z,65.78
2017-08-07T09:21:47.378Z,66.55
2017-08-07T09:22:57.232Z,66.46
2017-08-07T09:24:06.447Z,66.36
2017-08-07T09:25:15.983Z,66.17
2017-08-07T09:26:25.768Z,65.78
2017-08-07T09:27:35.318Z,64.56
2017-08-07T09:28:44.858Z,65.33
2017-08-07T09:29:54.734Z,65.01
2017-08-07T09:31:04.597Z,64.92
2017-08-07T09:32:13.962Z,65.69
2017-08-07T09:33:23.173Z,64.86
2017-08-07T09:34:33.029Z,64.76
2017-08-07T09:35:42.236Z,64.18
2017-08-07T09:36:51.776Z,64.56
2017-08-07T09:38:01.585Z,63.98
2017-08-07T09:39:11.442Z,64.86
2017-08-07T09:40:20.650Z,63.89
2017-08-07T09:41:30.515Z,63.6
2017-08-07T09:42:40.370Z,64.76
2017-08-07T09:43:49.635Z,65.05
2017-08-07T09:44:59.812Z,65.24
2017-08-07T09:46:09.678Z,64.11
2017-08-07T09:47:19.532Z,64.79
2017-08-07T09:48:28.740Z,63.82
2017-08-07T09:49:37.685Z,61.61
2017-08-07T09:50:46.897Z,61.71
2017-08-07T09:51:55.789Z,61.8
2017-08-07T09:53:05.330Z,61.32
2017-08-07T09:54:14.538Z,62.28
2017-08-07T09:55:23.675Z,61.41
2017-08-07T09:56:32.563Z,59.1
2017-08-07T09:57:42.092Z,58.91
2017-08-07T09:58:51.634Z,59.39
2017-08-07T10:00:01.166Z,60.83
2017-08-07T10:01:10.205Z,60.64
2017-08-07T10:02:20.066Z,60.55
2017-08-07T10:03:29.924Z,60.93
2017-08-07T10:04:39.455Z,58.07
2017-08-07T10:05:48.992Z,59.1
2017-08-07T10:06:58.581Z,59.9
2017-08-07T10:08:08.440Z,58.45
2017-08-07T10:09:18.637Z,58.65
2017-08-07T10:10:28.498Z,59.13
2017-08-07T10:11:38.035Z,58.62
2017-08-07T10:12:47.077Z,58.72
2017-08-07T10:13:56.288Z,58.62
2017-08-07T10:15:05.506Z,57.59
2017-08-07T10:16:15.045Z,57.39
2017-08-07T10:17:24.257Z,58.75
2017-08-07T10:18:33.246Z,58.36
2017-08-07T10:19:42.134Z,58.65
2017-08-07T10:20:51.668Z,57.97
2017-08-07T10:22:00.876Z,58.36
2017-08-07T10:23:10.096Z,58.36
2017-08-07T10:24:19.686Z,58.55
2017-08-07T10:25:28.581Z,56.56
2017-08-07T10:26:37.793Z,55.98
2017-08-07T10:27:47.339Z,56.56
2017-08-07T10:28:56.226Z,57.71
2017-08-07T10:30:06.233Z,58.58
2017-08-07T10:31:15.775Z,57.9
2017-08-07T10:32:25.309Z,55.68
2017-08-07T10:33:34.520Z,56.07
2017-08-07T10:34:44.052Z,56.36
2017-08-07T10:35:53.739Z,56.74
2017-08-07T10:37:02.952Z,57.42
2017-08-07T10:38:12.486Z,56.46
2017-08-07T10:39:22.346Z,56.65
2017-08-07T10:40:31.558Z,56.84
2017-08-07T10:41:41.398Z,56.94
2017-08-07T10:42:50.951Z,57.52
2017-08-07T10:44:00.813Z,57.04
2017-08-07T10:45:10.353Z,57.35
2017-08-07T10:46:19.901Z,55.9
2017-08-07T10:47:29.166Z,55.23
2017-08-07T10:48:38.373Z,57.45
2017-08-07T10:49:47.912Z,57.45
2017-08-07T10:50:57.125Z,57.06
2017-08-07T10:52:06.666Z,56.96
2017-08-07T10:53:16.588Z,55.83
2017-08-07T10:54:25.801Z,55.65
2017-08-07T10:55:35.668Z,54.29
2017-08-07T10:56:45.201Z,53.13
2017-08-07T10:57:54.738Z,52.36
2017-08-07T10:59:04.471Z,53.42
2017-08-07T11:00:14.008Z,53.52
2017-08-07T11:01:23.235Z,52.94
2017-08-07T11:02:32.131Z,53.33
2017-08-07T11:03:41.996Z,53.91
2017-08-07T11:04:50.882Z,53.64
2017-08-07T11:06:00.093Z,54.51
2017-08-07T11:07:09.303Z,55.38
2017-08-07T11:08:19.491Z,55.47
2017-08-07T11:09:28.380Z,54.32
2017-08-07T11:10:37.644Z,55.09
2017-08-07T11:11:47.183Z,54.51
2017-08-07T11:12:56.405Z,54.68
2017-08-07T11:14:05.294Z,54
2017-08-07T11:15:14.829Z,53.03
2017-08-07T11:16:23.770Z,52.45
2017-08-07T11:17:33.624Z,52.07
2017-08-07T11:18:43.491Z,55.83
2017-08-07T11:19:53.034Z,53.71
2017-08-07T11:21:02.570Z,52
2017-08-07T11:22:12.207Z,52.58
2017-08-07T11:23:21.762Z,52.41
2017-08-07T11:24:31.311Z,52.22
2017-08-07T11:25:40.846Z,52.22
2017-08-07T11:26:50.705Z,51.93
2017-08-07T11:28:00.126Z,52.63
2017-08-07T11:29:09.999Z,52.14
2017-08-07T11:30:19.581Z,52.89
2017-08-07T11:31:29.442Z,53.96
2017-08-07T11:32:38.338Z,55.41
2017-08-07T11:33:47.711Z,53.19
2017-08-07T11:34:56.612Z,53.28
2017-08-07T11:36:06.145Z,54.44
2017-08-07T11:37:15.032Z,54.53
2017-08-07T11:38:24.569Z,54.53
2017-08-07T11:39:34.676Z,53.38
2017-08-07T11:40:44.221Z,53.19
2017-08-07T11:41:53.435Z,52.51
2017-08-07T11:43:02.972Z,52.61
2017-08-07T11:44:12.183Z,52.51
2017-08-07T11:45:21.501Z,52.48
2017-08-07T11:46:31.038Z,54.22
2017-08-07T11:47:40.901Z,54.71
2017-08-07T11:48:50.114Z,53.25
2017-08-07T11:50:00.295Z,52.67
2017-08-07T11:51:10.151Z,52.67
2017-08-07T11:52:19.039Z,53.55
2017-08-07T11:53:28.575Z,54.32
2017-08-07T11:54:38.113Z,52.97
2017-08-07T11:55:47.002Z,51.23
2017-08-07T11:56:56.267Z,50.84
2017-08-07T11:58:05.804Z,52.89
2017-08-07T11:59:15.028Z,50.57
2017-08-07T12:00:24.241Z,51.66
2017-08-07T12:01:34.104Z,51.37
2017-08-07T12:02:44.043Z,50.98
2017-08-07T12:03:53.582Z,50.4
2017-08-07T12:05:03.139Z,50.6
2017-08-07T12:06:12.999Z,51.4
2017-08-07T12:07:22.222Z,50.72
2017-08-07T12:08:31.674Z,49.97
2017-08-07T12:09:41.537Z,49.58
2017-08-07T12:10:51.401Z,48.81
2017-08-07T12:12:00.618Z,49
2017-08-07T12:13:10.165Z,47.94
2017-08-07T12:14:19.724Z,49
2017-08-07T12:15:28.945Z,48.03
2017-08-07T12:16:38.167Z,47.26
2017-08-07T12:17:47.389Z,46.89
2017-08-07T12:18:56.609Z,46.8
2017-08-07T12:20:05.980Z,47.16
2017-08-07T12:21:15.518Z,48.03
2017-08-07T12:22:24.737Z,48.81
2017-08-07T12:23:33.959Z,47.47
2017-08-07T12:24:43.875Z,48.74
2017-08-07T12:25:53.720Z,49.02
2017-08-07T12:27:02.623Z,48.06
2017-08-07T12:28:12.491Z,47.28
2017-08-07T12:29:21.712Z,47.09
2017-08-07T12:30:31.267Z,46.89
2017-08-07T12:31:41.196Z,46.89
2017-08-07T12:32:50.422Z,47.16
2017-08-07T12:33:59.645Z,47.64
2017-08-07T12:35:08.866Z,48.03
2017-08-07T12:36:18.418Z,49.87
2017-08-07T12:37:28.264Z,48.93
2017-08-07T12:38:37.811Z,49.22
2017-08-07T12:39:47.352Z,46.99
2017-08-07T12:40:57.235Z,46.89
2017-08-07T12:42:06.784Z,46.62
2017-08-07T12:43:16.537Z,46.92
2017-08-07T12:44:26.082Z,46.82
2017-08-07T12:45:36.276Z,46.45
2017-08-07T12:46:45.518Z,44.61
2017-08-07T12:47:55.068Z,46.65
2017-08-07T12:49:05.104Z,46.07
2017-08-07T12:50:14.835Z,45.39
2017-08-07T12:51:24.407Z,46.75
2017-08-07T12:52:33.961Z,45.78
2017-08-07T12:53:43.838Z,47.42
2017-08-07T12:54:53.365Z,47.93
2017-08-07T12:56:02.916Z,46.48
2017-08-07T12:57:12.152Z,45.61
2017-08-07T12:58:22.368Z,46.6
2017-08-07T12:59:32.243Z,47.06
2017-08-07T13:00:41.696Z,46.11
2017-08-07T13:01:50.600Z,47.18
2017-08-07T13:02:59.832Z,46.31
2017-08-07T13:04:10.374Z,45.34
2017-08-07T13:05:20.411Z,45.24
2017-08-07T13:06:30.436Z,45.24
2017-08-07T13:07:39.662Z,46.01
2017-08-07T13:08:48.617Z,55.92
2017-08-07T13:09:57.840Z,47.28
2017-08-07T13:11:07.727Z,47.74
2017-08-07T13:12:18.061Z,47.03
2017-08-07T13:13:28.147Z,46.77
2017-08-07T13:14:37.373Z,45.89
2017-08-07T13:15:46.920Z,45.12
2017-08-07T13:16:55.825Z,46.86
2017-08-07T13:18:05.437Z,45.99
2017-08-07T13:19:14.991Z,46.09
2017-08-07T13:20:24.898Z,45.41
2017-08-07T13:21:34.453Z,45.24
2017-08-07T13:22:44.324Z,44.75
2017-08-07T13:23:53.979Z,44.29
2017-08-07T13:25:03.555Z,43.22
2017-08-07T13:26:12.779Z,43.61
2017-08-07T13:27:22.333Z,43.61
2017-08-07T13:28:31.881Z,44.68
2017-08-07T13:29:41.741Z,44.09
2017-08-07T13:30:51.289Z,43.3
2017-08-07T13:32:01.162Z,45.34
2017-08-07T13:33:11.029Z,44.65
2017-08-07T13:34:20.906Z,46.11
2017-08-07T13:35:30.378Z,45.31
2017-08-07T13:36:39.601Z,46.21
2017-08-07T13:37:48.826Z,45.51
2017-08-07T13:38:57.725Z,45.02
2017-08-07T13:40:07.271Z,46.77
2017-08-07T13:41:17.082Z,44.54
2017-08-07T13:42:26.314Z,45.04
2017-08-07T13:43:36.184Z,45.04
2017-08-07T13:44:46.060Z,45.14
2017-08-07T13:45:55.292Z,43.9
2017-08-07T13:47:05.266Z,43.1
2017-08-07T13:48:14.816Z,44.56
2017-08-07T13:49:24.067Z,43.78
2017-08-07T13:50:33.629Z,45.04
2017-08-07T13:51:42.852Z,46.5
2017-08-07T13:52:52.769Z,46.67
2017-08-07T13:54:02.969Z,46.19
2017-08-07T13:55:12.215Z,47.64
2017-08-07T13:56:21.956Z,45.92
2017-08-07T13:57:32.190Z,46.5
2017-08-07T13:58:42.415Z,45.72
2017-08-07T13:59:51.665Z,45.07
2017-08-07T14:01:00.896Z,43.8
2017-08-07T14:02:10.447Z,43.32
2017-08-07T14:03:19.346Z,42.74
2017-08-07T14:04:28.725Z,43.15
2017-08-07T14:05:38.278Z,43.24
2017-08-07T14:06:48.177Z,42.95
2017-08-07T14:07:57.741Z,44.7
2017-08-07T14:09:07.294Z,43.65
2017-08-07T14:10:16.212Z,43.36
2017-08-07T14:11:25.136Z,43.36
2017-08-07T14:12:34.703Z,42.68
2017-08-07T14:13:44.590Z,44.21
2017-08-07T14:14:53.820Z,44.6
2017-08-07T14:16:03.690Z,46.04
2017-08-07T14:17:13.239Z,44.48
2017-08-07T14:18:22.789Z,44.48
2017-08-07T14:19:32.060Z,44.68
2017-08-07T14:20:41.281Z,45.43
2017-08-07T14:21:50.503Z,45.14
2017-08-07T14:22:59.728Z,45.12
2017-08-07T14:24:08.961Z,45.12
2017-08-07T14:25:18.832Z,43.68
2017-08-07T14:26:28.714Z,44.58
2017-08-07T14:27:38.259Z,44.68
2017-08-07T14:28:47.155Z,44.48
2017-08-07T14:29:56.488Z,44.56
2017-08-07T14:31:06.682Z,44.65
2017-08-07T14:32:15.584Z,44.75
2017-08-07T14:33:24.479Z,47.76
2017-08-07T14:34:33.703Z,47.86
2017-08-07T14:35:43.119Z,47.28
2017-08-07T14:36:52.345Z,45.14
2017-08-07T14:38:02.222Z,45.99
2017-08-07T14:39:12.166Z,47.06
2017-08-07T14:40:21.074Z,48.22
2017-08-07T14:41:31.089Z,46.96
2017-08-07T14:42:40.313Z,46.67
2017-08-07T14:43:49.857Z,45.89
2017-08-07T14:44:59.396Z,44.46
2017-08-07T14:46:08.618Z,45.24
2017-08-07T14:47:18.164Z,47.11
2017-08-07T14:48:27.390Z,43.24
2017-08-07T14:49:36.948Z,43.34
2017-08-07T14:50:46.176Z,43.16
2017-08-07T14:51:55.723Z,42.6
2017-08-07T14:53:05.421Z,42.8
2017-08-07T14:54:14.328Z,42.8
2017-08-07T14:55:23.874Z,42.6
2017-08-07T14:56:33.747Z,42.72
2017-08-07T14:57:42.970Z,44.76